O01 weather

Heussler Hamburg Heliport
Hamburg, New York, United States

Public forecast

Using degrees Fahrenheit for public forecast. Weather courtesy of forecast.io.

METAR (pilot weather report)

Closest report is Buffalo Niagara International Airport, 10.5 nm (19.4 km) NNE. Retrieved 2019/06/19 18:54 UTC (47 minutes ago):

KBUF 191854Z VRB03KT 10SM SCT047 SCT160 BKN250 27/15 A2976 RMK AO2 SLP072 T02670150

TAF (pilot weather forecast)

Closest forecast is Buffalo Niagara International Airport, 10.5 nm (19.4 km) NNE. Retrieved 2019/06/19 18:45 UTC (56 minutes ago):

TAF KBUF 191743Z 1918/2018 00000KT P6SM FEW040 BKN250 FM201100 05005KT P6SM OVC025 FM201300 05007KT 6SM SHRA OVC015 FM201500 03008KT 3SM +SHRA BR OVC007 FM201600 04010KT 1 1/2SM +SHRA BR OVC007